sensor_id;sensor_type;location;lat;lon;timestamp;temperature;humidity
49242;DHT22;35079;52.704;13.814;2022-11-15T00:01:45;6.00;99.90
49242;DHT22;35079;52.704;13.814;2022-11-15T00:04:10;6.10;99.90
49242;DHT22;35079;52.704;13.814;2022-11-15T00:06:36;6.10;99.90
49242;DHT22;35079;52.704;13.814;2022-11-15T00:09:02;6.30;99.90
49242;DHT22;35079;52.704;13.814;2022-11-15T00:11:28;6.30;99.90
49242;DHT22;35079;52.704;13.814;2022-11-15T00:13:56;6.40;99.90
49242;DHT22;35079;52.704;13.814;2022-11-15T00:16:22;6.30;99.90
49242;DHT22;35079;52.704;13.814;2022-11-15T00:18:48;6.30;99.90
49242;DHT22;35079;52.704;13.814;2022-11-15T00:21:14;6.30;99.90
49242;DHT22;35079;52.704;13.814;2022-11-15T00:23:40;6.10;99.90
49242;DHT22;35079;52.704;13.814;2022-11-15T00:26:06;6.10;99.90
49242;DHT22;35079;52.704;13.814;2022-11-15T00:28:32;6.10;99.90
49242;DHT22;35079;52.704;13.814;2022-11-15T00:31:06;6.10;99.90
49242;DHT22;35079;52.704;13.814;2022-11-15T00:33:32;6.00;99.90
49242;DHT22;35079;52.704;13.814;2022-11-15T00:36:08;5.90;99.90
49242;DHT22;35079;52.704;13.814;2022-11-15T00:38:40;5.80;99.90
49242;DHT22;35079;52.704;13.814;2022-11-15T00:41:07;5.80;99.90
49242;DHT22;35079;52.704;13.814;2022-11-15T00:43:33;5.70;99.90
49242;DHT22;35079;52.704;13.814;2022-11-15T00:45:59;5.80;99.90
49242;DHT22;35079;52.704;13.814;2022-11-15T00:48:25;5.60;99.90
49242;DHT22;35079;52.704;13.814;2022-11-15T00:50:51;5.60;99.90
49242;DHT22;35079;52.704;13.814;2022-11-15T00:53:16;5.50;99.90
49242;DHT22;35079;52.704;13.814;2022-11-15T00:55:42;5.50;99.90
49242;DHT22;35079;52.704;13.814;2022-11-15T00:58:08;5.40;99.90
49242;DHT22;35079;52.704;13.814;2022-11-15T01:00:39;5.50;99.90
49242;DHT22;35079;52.704;13.814;2022-11-15T01:03:05;5.60;99.90
49242;DHT22;35079;52.704;13.814;2022-11-15T01:05:30;5.40;99.90
49242;DHT22;35079;52.704;13.814;2022-11-15T01:07:56;5.40;99.90
49242;DHT22;35079;52.704;13.814;2022-11-15T01:10:23;5.40;99.90
49242;DHT22;35079;52.704;13.814;2022-11-15T01:12:51;5.50;99.90
49242;DHT22;35079;52.704;13.814;2022-11-15T01:15:16;5.30;99.90
49242;DHT22;35079;52.704;13.814;2022-11-15T01:17:42;5.40;99.90
49242;DHT22;35079;52.704;13.814;2022-11-15T01:20:08;5.40;99.90
49242;DHT22;35079;52.704;13.814;2022-11-15T01:22:34;5.30;99.90
49242;DHT22;35079;52.704;13.814;2022-11-15T01:25:00;5.40;99.90
49242;DHT22;35079;52.704;13.814;2022-11-15T01:27:25;5.30;99.90
49242;DHT22;35079;52.704;13.814;2022-11-15T01:29:51;5.30;99.90
49242;DHT22;35079;52.704;13.814;2022-11-15T01:32:17;5.30;99.90
49242;DHT22;35079;52.704;13.814;2022-11-15T01:34:42;5.20;99.90
49242;DHT22;35079;52.704;13.814;2022-11-15T01:37:08;5.30;99.90
49242;DHT22;35079;52.704;13.814;2022-11-15T01:39:51;5.30;99.90
49242;DHT22;35079;52.704;13.814;2022-11-15T01:42:16;5.20;99.90
49242;DHT22;35079;52.704;13.814;2022-11-15T01:44:49;5.30;99.90
49242;DHT22;35079;52.704;13.814;2022-11-15T01:47:40;5.20;99.90
49242;DHT22;35079;52.704;13.814;2022-11-15T01:50:09;5.30;99.90
49242;DHT22;35079;52.704;13.814;2022-11-15T01:52:37;5.40;99.90
49242;DHT22;35079;52.704;13.814;2022-11-15T01:55:09;5.40;99.90
49242;DHT22;35079;52.704;13.814;2022-11-15T01:57:37;5.50;99.90
49242;DHT22;35079;52.704;13.814;2022-11-15T02:00:04;5.40;99.90
49242;DHT22;35079;52.704;13.814;2022-11-15T02:02:30;5.40;99.90
49242;DHT22;35079;52.704;13.814;2022-11-15T02:04:56;5.40;99.90
49242;DHT22;35079;52.704;13.814;2022-11-15T02:07:22;5.30;99.90
49242;DHT22;35079;52.704;13.814;2022-11-15T02:09:48;5.30;99.90
49242;DHT22;35079;52.704;13.814;2022-11-15T02:12:19;5.40;99.90
49242;DHT22;35079;52.704;13.814;2022-11-15T02:14:51;5.50;99.90
49242;DHT22;35079;52.704;13.814;2022-11-15T02:20:27;5.40;99.90
49242;DHT22;35079;52.704;13.814;2022-11-15T02:37:11;5.50;99.90
49242;DHT22;35079;52.704;13.814;2022-11-15T02:39:49;5.50;99.90
49242;DHT22;35079;52.704;13.814;2022-11-15T02:42:36;5.70;99.90
49242;DHT22;35079;52.704;13.814;2022-11-15T02:45:36;5.60;99.90
49242;DHT22;35079;52.704;13.814;2022-11-15T02:48:03;5.70;99.90
49242;DHT22;35079;52.704;13.814;2022-11-15T02:50:42;5.60;99.90
49242;DHT22;35079;52.704;13.814;2022-11-15T02:53:09;5.70;99.90
49242;DHT22;35079;52.704;13.814;2022-11-15T02:55:42;5.60;99.90
49242;DHT22;35079;52.704;13.814;2022-11-15T03:01:10;5.70;99.90
49242;DHT22;35079;52.704;13.814;2022-11-15T03:06:30;5.80;99.90
49242;DHT22;35079;52.704;13.814;2022-11-15T03:09:49;5.80;99.90
49242;DHT22;35079;52.704;13.814;2022-11-15T03:11:54;5.80;99.90
49242;DHT22;35079;52.704;13.814;2022-11-15T03:19:57;5.80;99.90
49242;DHT22;35079;52.704;13.814;2022-11-15T03:22:27;5.90;99.90
49242;DHT22;35079;52.704;13.814;2022-11-15T03:24:57;5.80;99.90
49242;DHT22;35079;52.704;13.814;2022-11-15T03:27:26;5.90;99.90
49242;DHT22;35079;52.704;13.814;2022-11-15T03:29:59;5.80;99.90
49242;DHT22;35079;52.704;13.814;2022-11-15T03:32:28;5.80;99.90
49242;DHT22;35079;52.704;13.814;2022-11-15T03:35:05;5.60;99.90
49242;DHT22;35079;52.704;13.814;2022-11-15T03:40:40;5.60;99.90
49242;DHT22;35079;52.704;13.814;2022-11-15T03:45:54;5.50;99.90
49242;DHT22;35079;52.704;13.814;2022-11-15T03:48:27;5.50;99.90
49242;DHT22;35079;52.704;13.814;2022-11-15T03:50:56;5.60;99.90
49242;DHT22;35079;52.704;13.814;2022-11-15T03:53:21;5.40;99.90
49242;DHT22;35079;52.704;13.814;2022-11-15T03:55:47;5.60;99.90
49242;DHT22;35079;52.704;13.814;2022-11-15T03:58:13;5.60;99.90
49242;DHT22;35079;52.704;13.814;2022-11-15T04:00:38;5.60;99.90
49242;DHT22;35079;52.704;13.814;2022-11-15T04:03:04;5.50;99.90
49242;DHT22;35079;52.704;13.814;2022-11-15T04:05:30;5.50;99.90
49242;DHT22;35079;52.704;13.814;2022-11-15T04:07:55;5.50;99.90
49242;DHT22;35079;52.704;13.814;2022-11-15T04:10:21;5.60;99.90
49242;DHT22;35079;52.704;13.814;2022-11-15T04:12:46;5.40;99.90
49242;DHT22;35079;52.704;13.814;2022-11-15T04:15:15;5.40;99.90
49242;DHT22;35079;52.704;13.814;2022-11-15T04:17:52;5.30;99.90
49242;DHT22;35079;52.704;13.814;2022-11-15T04:20:29;5.30;99.90
49242;DHT22;35079;52.704;13.814;2022-11-15T04:23:18;5.20;99.90
49242;DHT22;35079;52.704;13.814;2022-11-15T04:26:05;5.20;99.90
49242;DHT22;35079;52.704;13.814;2022-11-15T04:28:31;5.30;99.90
49242;DHT22;35079;52.704;13.814;2022-11-15T04:30:57;5.30;99.90
49242;DHT22;35079;52.704;13.814;2022-11-15T04:33:23;5.40;99.90
49242;DHT22;35079;52.704;13.814;2022-11-15T04:35:49;5.40;99.90
49242;DHT22;35079;52.704;13.814;2022-11-15T04:38:34;5.50;99.90
49242;DHT22;35079;52.704;13.814;2022-11-15T04:41:00;5.50;99.90
49242;DHT22;35079;52.704;13.814;2022-11-15T04:43:26;5.50;99.90
49242;DHT22;35079;52.704;13.814;2022-11-15T04:45:51;5.50;99.90
49242;DHT22;35079;52.704;13.814;2022-11-15T04:48:17;5.60;99.90
49242;DHT22;35079;52.704;13.814;2022-11-15T04:50:43;5.50;99.90
49242;DHT22;35079;52.704;13.814;2022-11-15T04:53:08;5.60;99.90
49242;DHT22;35079;52.704;13.814;2022-11-15T04:55:34;5.60;99.90
49242;DHT22;35079;52.704;13.814;2022-11-15T04:58:00;5.60;99.90
49242;DHT22;35079;52.704;13.814;2022-11-15T05:00:27;5.60;99.90
49242;DHT22;35079;52.704;13.814;2022-11-15T05:02:53;5.70;99.90
49242;DHT22;35079;52.704;13.814;2022-11-15T05:05:37;5.70;99.90
49242;DHT22;35079;52.704;13.814;2022-11-15T05:08:03;5.70;99.90
49242;DHT22;35079;52.704;13.814;2022-11-15T05:10:29;5.60;99.90
49242;DHT22;35079;52.704;13.814;2022-11-15T05:12:55;5.70;99.90
49242;DHT22;35079;52.704;13.814;2022-11-15T05:15:20;5.80;99.90
49242;DHT22;35079;52.704;13.814;2022-11-15T05:17:46;5.60;99.90
49242;DHT22;35079;52.704;13.814;2022-11-15T05:20:12;5.70;99.90
49242;DHT22;35079;52.704;13.814;2022-11-15T05:22:38;5.60;99.90
49242;DHT22;35079;52.704;13.814;2022-11-15T05:25:04;5.60;99.90
49242;DHT22;35079;52.704;13.814;2022-11-15T05:27:30;5.70;99.90
49242;DHT22;35079;52.704;13.814;2022-11-15T05:29:56;5.80;99.90
49242;DHT22;35079;52.704;13.814;2022-11-15T05:32:21;5.80;99.90
49242;DHT22;35079;52.704;13.814;2022-11-15T05:34:47;5.90;99.90
49242;DHT22;35079;52.704;13.814;2022-11-15T05:37:14;6.00;99.90
49242;DHT22;35079;52.704;13.814;2022-11-15T05:39:39;5.90;99.90
49242;DHT22;35079;52.704;13.814;2022-11-15T05:42:09;5.80;99.90
49242;DHT22;35079;52.704;13.814;2022-11-15T05:44:36;5.80;99.90
49242;DHT22;35079;52.704;13.814;2022-11-15T05:47:05;5.80;99.90
49242;DHT22;35079;52.704;13.814;2022-11-15T05:49:36;5.70;99.90
49242;DHT22;35079;52.704;13.814;2022-11-15T05:52:05;5.90;99.90
49242;DHT22;35079;52.704;13.814;2022-11-15T05:54:32;5.80;99.90
49242;DHT22;35079;52.704;13.814;2022-11-15T05:56:59;5.80;99.90
49242;DHT22;35079;52.704;13.814;2022-11-15T05:59:25;5.70;99.90
49242;DHT22;35079;52.704;13.814;2022-11-15T06:01:51;5.70;99.90
49242;DHT22;35079;52.704;13.814;2022-11-15T06:04:16;5.70;99.90
49242;DHT22;35079;52.704;13.814;2022-11-15T06:06:42;5.70;99.90
49242;DHT22;35079;52.704;13.814;2022-11-15T06:09:08;5.70;99.90
49242;DHT22;35079;52.704;13.814;2022-11-15T06:11:33;5.60;99.90
49242;DHT22;35079;52.704;13.814;2022-11-15T06:13:59;5.70;99.90
49242;DHT22;35079;52.704;13.814;2022-11-15T06:16:24;5.80;99.90
49242;DHT22;35079;52.704;13.814;2022-11-15T06:18:50;5.70;99.90
49242;DHT22;35079;52.704;13.814;2022-11-15T06:21:15;5.70;99.90
49242;DHT22;35079;52.704;13.814;2022-11-15T06:23:41;5.70;99.90
49242;DHT22;35079;52.704;13.814;2022-11-15T06:26:07;5.70;99.90
49242;DHT22;35079;52.704;13.814;2022-11-15T06:28:33;5.80;99.90
49242;DHT22;35079;52.704;13.814;2022-11-15T06:31:06;5.60;99.90
49242;DHT22;35079;52.704;13.814;2022-11-15T06:33:32;5.60;99.90
49242;DHT22;35079;52.704;13.814;2022-11-15T06:36:03;5.70;99.90
49242;DHT22;35079;52.704;13.814;2022-11-15T06:38:29;5.60;99.90
49242;DHT22;35079;52.704;13.814;2022-11-15T06:40:54;5.80;99.90
49242;DHT22;35079;52.704;13.814;2022-11-15T06:43:20;5.70;99.90
49242;DHT22;35079;52.704;13.814;2022-11-15T06:45:46;5.80;99.90
49242;DHT22;35079;52.704;13.814;2022-11-15T06:48:11;5.80;99.90
49242;DHT22;35079;52.704;13.814;2022-11-15T06:50:37;5.90;99.90
49242;DHT22;35079;52.704;13.814;2022-11-15T06:53:05;5.90;99.90
49242;DHT22;35079;52.704;13.814;2022-11-15T06:55:31;5.80;99.90
49242;DHT22;35079;52.704;13.814;2022-11-15T06:57:57;6.00;99.90
49242;DHT22;35079;52.704;13.814;2022-11-15T07:00:22;6.00;99.90
49242;DHT22;35079;52.704;13.814;2022-11-15T07:02:48;6.00;99.90
49242;DHT22;35079;52.704;13.814;2022-11-15T07:05:15;6.10;99.90
49242;DHT22;35079;52.704;13.814;2022-11-15T07:07:41;6.20;99.90
49242;DHT22;35079;52.704;13.814;2022-11-15T07:10:07;6.20;99.90
49242;DHT22;35079;52.704;13.814;2022-11-15T07:12:33;6.40;99.90
49242;DHT22;35079;52.704;13.814;2022-11-15T07:14:59;6.60;99.90
49242;DHT22;35079;52.704;13.814;2022-11-15T07:17:25;6.80;99.90
49242;DHT22;35079;52.704;13.814;2022-11-15T07:19:50;7.20;99.90
49242;DHT22;35079;52.704;13.814;2022-11-15T07:22:19;7.50;99.90
49242;DHT22;35079;52.704;13.814;2022-11-15T07:24:44;7.90;99.90
49242;DHT22;35079;52.704;13.814;2022-11-15T07:27:10;8.40;99.90
49242;DHT22;35079;52.704;13.814;2022-11-15T07:29:36;8.20;99.90
49242;DHT22;35079;52.704;13.814;2022-11-15T07:32:01;8.40;99.90
49242;DHT22;35079;52.704;13.814;2022-11-15T07:34:44;8.70;99.90
49242;DHT22;35079;52.704;13.814;2022-11-15T07:37:11;8.70;99.90
49242;DHT22;35079;52.704;13.814;2022-11-15T07:39:37;9.10;99.90
49242;DHT22;35079;52.704;13.814;2022-11-15T07:42:03;9.40;99.90
49242;DHT22;35079;52.704;13.814;2022-11-15T07:44:47;9.50;99.90
49242;DHT22;35079;52.704;13.814;2022-11-15T07:47:13;9.70;99.90
49242;DHT22;35079;52.704;13.814;2022-11-15T07:49:38;9.80;99.90
49242;DHT22;35079;52.704;13.814;2022-11-15T07:52:04;9.90;99.90
49242;DHT22;35079;52.704;13.814;2022-11-15T07:54:29;9.80;99.90
49242;DHT22;35079;52.704;13.814;2022-11-15T07:56:55;9.70;99.90
49242;DHT22;35079;52.704;13.814;2022-11-15T07:59:21;9.60;99.90
49242;DHT22;35079;52.704;13.814;2022-11-15T08:01:46;9.70;99.90
49242;DHT22;35079;52.704;13.814;2022-11-15T08:04:12;9.60;99.90
49242;DHT22;35079;52.704;13.814;2022-11-15T08:06:38;9.60;99.90
49242;DHT22;35079;52.704;13.814;2022-11-15T08:09:04;9.30;99.90
49242;DHT22;35079;52.704;13.814;2022-11-15T08:11:29;9.40;99.90
49242;DHT22;35079;52.704;13.814;2022-11-15T08:13:55;9.40;99.90
49242;DHT22;35079;52.704;13.814;2022-11-15T08:16:20;9.40;99.90
49242;DHT22;35079;52.704;13.814;2022-11-15T08:18:46;9.40;99.90
49242;DHT22;35079;52.704;13.814;2022-11-15T08:21:17;9.40;99.90
49242;DHT22;35079;52.704;13.814;2022-11-15T08:23:43;9.30;99.90
49242;DHT22;35079;52.704;13.814;2022-11-15T08:26:09;9.40;99.90
49242;DHT22;35079;52.704;13.814;2022-11-15T08:28:34;9.50;99.90
49242;DHT22;35079;52.704;13.814;2022-11-15T08:31:00;9.70;99.90
49242;DHT22;35079;52.704;13.814;2022-11-15T08:33:27;9.80;99.90
49242;DHT22;35079;52.704;13.814;2022-11-15T08:35:59;9.90;99.90
49242;DHT22;35079;52.704;13.814;2022-11-15T08:38:26;9.80;99.90
49242;DHT22;35079;52.704;13.814;2022-11-15T08:40:53;9.90;99.90
49242;DHT22;35079;52.704;13.814;2022-11-15T08:43:23;10.00;99.90
49242;DHT22;35079;52.704;13.814;2022-11-15T08:45:49;10.00;99.90
49242;DHT22;35079;52.704;13.814;2022-11-15T08:48:15;10.20;99.90
49242;DHT22;35079;52.704;13.814;2022-11-15T08:50:40;10.60;99.90
49242;DHT22;35079;52.704;13.814;2022-11-15T08:53:07;11.10;99.90
49242;DHT22;35079;52.704;13.814;2022-11-15T08:55:36;11.60;99.90
49242;DHT22;35079;52.704;13.814;2022-11-15T08:58:03;12.00;99.90
49242;DHT22;35079;52.704;13.814;2022-11-15T09:00:29;12.30;99.90
49242;DHT22;35079;52.704;13.814;2022-11-15T09:02:55;12.30;99.90
49242;DHT22;35079;52.704;13.814;2022-11-15T09:05:21;12.50;99.90
49242;DHT22;35079;52.704;13.814;2022-11-15T09:07:46;12.40;99.90
49242;DHT22;35079;52.704;13.814;2022-11-15T09:10:12;12.60;99.90
49242;DHT22;35079;52.704;13.814;2022-11-15T09:12:38;13.00;99.90
49242;DHT22;35079;52.704;13.814;2022-11-15T09:15:05;13.30;99.90
49242;DHT22;35079;52.704;13.814;2022-11-15T09:17:31;13.50;99.90
49242;DHT22;35079;52.704;13.814;2022-11-15T09:19:56;13.90;99.90
49242;DHT22;35079;52.704;13.814;2022-11-15T09:22:22;14.30;99.90
49242;DHT22;35079;52.704;13.814;2022-11-15T09:24:48;14.80;99.90
49242;DHT22;35079;52.704;13.814;2022-11-15T09:27:13;15.30;99.90
49242;DHT22;35079;52.704;13.814;2022-11-15T09:29:39;15.50;99.90
49242;DHT22;35079;52.704;13.814;2022-11-15T09:32:05;15.90;99.90
49242;DHT22;35079;52.704;13.814;2022-11-15T09:34:30;16.50;99.90
49242;DHT22;35079;52.704;13.814;2022-11-15T09:36:56;17.00;99.90
49242;DHT22;35079;52.704;13.814;2022-11-15T09:39:22;17.50;99.90
49242;DHT22;35079;52.704;13.814;2022-11-15T09:50:33;17.50;95.60
49242;DHT22;35079;52.704;13.814;2022-11-15T09:53:00;17.00;94.90
49242;DHT22;35079;52.704;13.814;2022-11-15T09:58:44;16.70;97.10
49242;DHT22;35079;52.704;13.814;2022-11-15T10:04:05;16.40;97.90
49242;DHT22;35079;52.704;13.814;2022-11-15T10:06:33;16.30;98.60
49242;DHT22;35079;52.704;13.814;2022-11-15T10:09:15;16.20;99.10
49242;DHT22;35079;52.704;13.814;2022-11-15T10:11:42;16.10;97.80
49242;DHT22;35079;52.704;13.814;2022-11-15T10:14:14;16.20;99.30
49242;DHT22;35079;52.704;13.814;2022-11-15T10:17:06;16.30;99.70
49242;DHT22;35079;52.704;13.814;2022-11-15T10:25:14;16.90;97.80
49242;DHT22;35079;52.704;13.814;2022-11-15T10:27:42;16.80;98.10
49242;DHT22;35079;52.704;13.814;2022-11-15T10:30:15;16.70;98.00
49242;DHT22;35079;52.704;13.814;2022-11-15T10:32:44;16.90;97.00
49242;DHT22;35079;52.704;13.814;2022-11-15T10:35:30;16.70;97.30
49242;DHT22;35079;52.704;13.814;2022-11-15T10:38:10;16.60;97.40
49242;DHT22;35079;52.704;13.814;2022-11-15T10:40:37;16.50;98.20
49242;DHT22;35079;52.704;13.814;2022-11-15T10:45:35;16.80;98.90
49242;DHT22;35079;52.704;13.814;2022-11-15T10:50:46;17.30;96.40
49242;DHT22;35079;52.704;13.814;2022-11-15T10:55:51;16.30;97.00
49242;DHT22;35079;52.704;13.814;2022-11-15T10:58:34;16.00;97.40
49242;DHT22;35079;52.704;13.814;2022-11-15T11:01:14;15.40;98.70
49242;DHT22;35079;52.704;13.814;2022-11-15T11:03:42;14.90;99.90
49242;DHT22;35079;52.704;13.814;2022-11-15T11:06:14;14.80;99.90
49242;DHT22;35079;52.704;13.814;2022-11-15T11:08:40;14.60;99.90
49242;DHT22;35079;52.704;13.814;2022-11-15T11:11:12;14.40;99.90
49242;DHT22;35079;52.704;13.814;2022-11-15T11:13:39;14.40;99.90
49242;DHT22;35079;52.704;13.814;2022-11-15T11:19:08;13.80;99.90
49242;DHT22;35079;52.704;13.814;2022-11-15T11:21:39;13.50;99.90
49242;DHT22;35079;52.704;13.814;2022-11-15T11:24:09;13.60;99.90
49242;DHT22;35079;52.704;13.814;2022-11-15T11:26:40;13.60;99.90
49242;DHT22;35079;52.704;13.814;2022-11-15T11:37:45;13.10;99.90
49242;DHT22;35079;52.704;13.814;2022-11-15T11:40:50;13.20;99.90
49242;DHT22;35079;52.704;13.814;2022-11-15T11:43:24;13.40;99.90
49242;DHT22;35079;52.704;13.814;2022-11-15T11:46:30;13.50;99.90
49242;DHT22;35079;52.704;13.814;2022-11-15T11:49:25;13.50;99.90
49242;DHT22;35079;52.704;13.814;2022-11-15T11:55:05;13.60;99.90
49242;DHT22;35079;52.704;13.814;2022-11-15T11:57:46;13.80;99.90
49242;DHT22;35079;52.704;13.814;2022-11-15T12:05:41;15.60;99.90
49242;DHT22;35079;52.704;13.814;2022-11-15T12:08:41;15.90;99.90
49242;DHT22;35079;52.704;13.814;2022-11-15T12:14:08;15.30;99.90
49242;DHT22;35079;52.704;13.814;2022-11-15T12:16:38;15.20;99.90
49242;DHT22;35079;52.704;13.814;2022-11-15T12:19:07;14.70;99.90
49242;DHT22;35079;52.704;13.814;2022-11-15T12:27:01;13.90;99.90
49242;DHT22;35079;52.704;13.814;2022-11-15T12:29:34;13.80;99.90
49242;DHT22;35079;52.704;13.814;2022-11-15T12:32:01;13.50;99.90
49242;DHT22;35079;52.704;13.814;2022-11-15T12:34:36;13.60;99.90
49242;DHT22;35079;52.704;13.814;2022-11-15T12:45:32;13.10;99.90
49242;DHT22;35079;52.704;13.814;2022-11-15T12:53:34;13.00;99.90
49242;DHT22;35079;52.704;13.814;2022-11-15T12:56:20;12.90;99.90
49242;DHT22;35079;52.704;13.814;2022-11-15T12:58:57;13.00;99.90
49242;DHT22;35079;52.704;13.814;2022-11-15T13:07:04;12.60;99.90
49242;DHT22;35079;52.704;13.814;2022-11-15T13:12:03;12.40;99.90
49242;DHT22;35079;52.704;13.814;2022-11-15T13:14:42;12.40;99.90
49242;DHT22;35079;52.704;13.814;2022-11-15T13:17:34;12.30;99.90
49242;DHT22;35079;52.704;13.814;2022-11-15T13:30:51;12.00;99.90
49242;DHT22;35079;52.704;13.814;2022-11-15T13:33:24;11.90;99.90
49242;DHT22;35079;52.704;13.814;2022-11-15T13:35:54;11.90;99.90
49242;DHT22;35079;52.704;13.814;2022-11-15T13:38:32;11.90;99.90
49242;DHT22;35079;52.704;13.814;2022-11-15T13:40:59;11.80;99.90
49242;DHT22;35079;52.704;13.814;2022-11-15T13:43:26;11.80;99.90
49242;DHT22;35079;52.704;13.814;2022-11-15T13:48:31;11.50;99.90
49242;DHT22;35079;52.704;13.814;2022-11-15T13:50:59;11.30;99.90
49242;DHT22;35079;52.704;13.814;2022-11-15T13:53:26;11.20;99.90
49242;DHT22;35079;52.704;13.814;2022-11-15T13:55:54;11.20;99.90
49242;DHT22;35079;52.704;13.814;2022-11-15T13:58:21;11.10;99.90
49242;DHT22;35079;52.704;13.814;2022-11-15T14:00:46;11.00;99.90
49242;DHT22;35079;52.704;13.814;2022-11-15T14:05:42;10.70;99.90
49242;DHT22;35079;52.704;13.814;2022-11-15T14:08:26;10.60;99.90
49242;DHT22;35079;52.704;13.814;2022-11-15T14:13:35;10.40;99.90
49242;DHT22;35079;52.704;13.814;2022-11-15T14:16:20;10.40;99.90
49242;DHT22;35079;52.704;13.814;2022-11-15T14:18:53;10.20;99.90
49242;DHT22;35079;52.704;13.814;2022-11-15T14:21:19;10.10;99.90
49242;DHT22;35079;52.704;13.814;2022-11-15T14:23:46;9.90;99.90
49242;DHT22;35079;52.704;13.814;2022-11-15T14:26:32;10.00;99.90
49242;DHT22;35079;52.704;13.814;2022-11-15T14:29:29;9.80;99.90
49242;DHT22;35079;52.704;13.814;2022-11-15T14:32:18;9.70;99.90
49242;DHT22;35079;52.704;13.814;2022-11-15T14:34:45;9.60;99.90
49242;DHT22;35079;52.704;13.814;2022-11-15T14:37:30;9.50;99.90
49242;DHT22;35079;52.704;13.814;2022-11-15T14:40:01;9.30;99.90
49242;DHT22;35079;52.704;13.814;2022-11-15T14:42:28;9.40;99.90
49242;DHT22;35079;52.704;13.814;2022-11-15T14:44:54;9.30;99.90
49242;DHT22;35079;52.704;13.814;2022-11-15T14:47:19;9.10;99.90
49242;DHT22;35079;52.704;13.814;2022-11-15T14:49:46;9.20;99.90
49242;DHT22;35079;52.704;13.814;2022-11-15T14:52:29;9.00;99.90
49242;DHT22;35079;52.704;13.814;2022-11-15T14:54:56;8.90;99.90
49242;DHT22;35079;52.704;13.814;2022-11-15T14:57:23;8.90;99.90
49242;DHT22;35079;52.704;13.814;2022-11-15T14:59:49;8.80;99.90
49242;DHT22;35079;52.704;13.814;2022-11-15T15:02:25;8.70;99.90
49242;DHT22;35079;52.704;13.814;2022-11-15T15:04:52;8.70;99.90
49242;DHT22;35079;52.704;13.814;2022-11-15T15:07:18;8.50;99.90
49242;DHT22;35079;52.704;13.814;2022-11-15T15:09:45;8.50;99.90
49242;DHT22;35079;52.704;13.814;2022-11-15T15:12:19;8.60;99.90
49242;DHT22;35079;52.704;13.814;2022-11-15T15:14:45;8.50;99.90
49242;DHT22;35079;52.704;13.814;2022-11-15T15:17:11;8.50;99.90
49242;DHT22;35079;52.704;13.814;2022-11-15T15:19:48;8.30;99.90
49242;DHT22;35079;52.704;13.814;2022-11-15T15:22:17;8.30;99.90
49242;DHT22;35079;52.704;13.814;2022-11-15T15:24:44;8.30;99.90
49242;DHT22;35079;52.704;13.814;2022-11-15T15:27:10;8.20;99.90
49242;DHT22;35079;52.704;13.814;2022-11-15T15:29:36;8.20;99.90
49242;DHT22;35079;52.704;13.814;2022-11-15T15:32:02;8.20;99.90
49242;DHT22;35079;52.704;13.814;2022-11-15T15:34:28;8.00;99.90
49242;DHT22;35079;52.704;13.814;2022-11-15T15:37:26;8.00;99.90
49242;DHT22;35079;52.704;13.814;2022-11-15T15:39:54;7.90;99.90
49242;DHT22;35079;52.704;13.814;2022-11-15T15:42:23;7.90;99.90
49242;DHT22;35079;52.704;13.814;2022-11-15T15:44:49;7.80;99.90
49242;DHT22;35079;52.704;13.814;2022-11-15T15:47:20;7.80;99.90
49242;DHT22;35079;52.704;13.814;2022-11-15T15:49:47;7.80;99.90
49242;DHT22;35079;52.704;13.814;2022-11-15T15:52:12;7.80;99.90
49242;DHT22;35079;52.704;13.814;2022-11-15T15:54:39;7.60;99.90
49242;DHT22;35079;52.704;13.814;2022-11-15T15:57:06;7.70;99.90
49242;DHT22;35079;52.704;13.814;2022-11-15T15:59:31;7.60;99.90
49242;DHT22;35079;52.704;13.814;2022-11-15T16:01:57;7.60;99.90
49242;DHT22;35079;52.704;13.814;2022-11-15T16:04:24;7.60;99.90
49242;DHT22;35079;52.704;13.814;2022-11-15T16:06:49;7.50;99.90
49242;DHT22;35079;52.704;13.814;2022-11-15T16:09:18;7.50;99.90
49242;DHT22;35079;52.704;13.814;2022-11-15T16:12:04;7.50;99.90
49242;DHT22;35079;52.704;13.814;2022-11-15T16:14:31;7.50;99.90
49242;DHT22;35079;52.704;13.814;2022-11-15T16:16:57;7.30;99.90
49242;DHT22;35079;52.704;13.814;2022-11-15T16:19:22;7.30;99.90
49242;DHT22;35079;52.704;13.814;2022-11-15T16:21:48;7.20;99.90
49242;DHT22;35079;52.704;13.814;2022-11-15T16:24:14;7.10;99.90
49242;DHT22;35079;52.704;13.814;2022-11-15T16:26:39;7.00;99.90
49242;DHT22;35079;52.704;13.814;2022-11-15T16:29:05;7.00;99.90
49242;DHT22;35079;52.704;13.814;2022-11-15T16:31:32;7.00;99.90
49242;DHT22;35079;52.704;13.814;2022-11-15T16:33:58;6.80;99.90
49242;DHT22;35079;52.704;13.814;2022-11-15T16:36:25;6.90;99.90
49242;DHT22;35079;52.704;13.814;2022-11-15T16:38:52;6.90;99.90
49242;DHT22;35079;52.704;13.814;2022-11-15T16:41:18;6.70;99.90
49242;DHT22;35079;52.704;13.814;2022-11-15T16:43:47;6.80;99.90
49242;DHT22;35079;52.704;13.814;2022-11-15T16:46:19;6.80;99.90
49242;DHT22;35079;52.704;13.814;2022-11-15T16:48:45;6.70;99.90
49242;DHT22;35079;52.704;13.814;2022-11-15T16:51:11;6.80;99.90
49242;DHT22;35079;52.704;13.814;2022-11-15T16:53:36;6.80;99.90
49242;DHT22;35079;52.704;13.814;2022-11-15T16:56:03;6.70;99.90
49242;DHT22;35079;52.704;13.814;2022-11-15T16:58:28;6.70;99.90
49242;DHT22;35079;52.704;13.814;2022-11-15T17:00:55;6.80;99.90
49242;DHT22;35079;52.704;13.814;2022-11-15T17:03:22;6.70;99.90
49242;DHT22;35079;52.704;13.814;2022-11-15T17:05:48;6.80;99.90
49242;DHT22;35079;52.704;13.814;2022-11-15T17:08:14;6.80;99.90
49242;DHT22;35079;52.704;13.814;2022-11-15T17:10:40;6.80;99.90
49242;DHT22;35079;52.704;13.814;2022-11-15T17:13:09;6.70;99.90
49242;DHT22;35079;52.704;13.814;2022-11-15T17:15:36;6.90;99.90
49242;DHT22;35079;52.704;13.814;2022-11-15T17:18:02;6.80;99.90
49242;DHT22;35079;52.704;13.814;2022-11-15T17:20:27;6.90;99.90
49242;DHT22;35079;52.704;13.814;2022-11-15T17:22:53;6.90;99.90
49242;DHT22;35079;52.704;13.814;2022-11-15T17:25:19;6.80;99.90
49242;DHT22;35079;52.704;13.814;2022-11-15T17:27:45;6.90;99.90
49242;DHT22;35079;52.704;13.814;2022-11-15T17:30:14;7.10;99.90
49242;DHT22;35079;52.704;13.814;2022-11-15T17:32:41;7.00;99.90
49242;DHT22;35079;52.704;13.814;2022-11-15T17:35:08;7.00;99.90
49242;DHT22;35079;52.704;13.814;2022-11-15T17:37:35;7.00;99.90
49242;DHT22;35079;52.704;13.814;2022-11-15T17:40:01;7.00;99.90
49242;DHT22;35079;52.704;13.814;2022-11-15T17:42:27;7.00;99.90
49242;DHT22;35079;52.704;13.814;2022-11-15T17:44:52;7.10;99.90
49242;DHT22;35079;52.704;13.814;2022-11-15T17:47:18;7.10;99.90
49242;DHT22;35079;52.704;13.814;2022-11-15T17:49:44;7.10;99.90
49242;DHT22;35079;52.704;13.814;2022-11-15T17:52:09;7.10;99.90